R.l. Enterkin — WDD9628 — position and weather

sailwx.info

Track history (hours):
 
Tides and Currents Weather Stations Pressure Air Temp Water Temp Dewpoint Dewpoint Depression Visibility Wind Speed Wind Dir Waves Ship Positions

R.l. Enterkin

Owner: Great Lakes Dredge & Dock Company, LLC., Oak Brook, IL. More information available from US FCC via Universal Licensing System and Coast Guard Vessel Documentation Center.

Last reported at 2016-May-02 09:33 UTC. Time now 2016-May-04 05:56 UTC.
Position N 39°19' W 074°32'.

MMSI: 367314080.

Date/timePositionNaut miles runAvg speedWind from/ knotsBaromVisibWave heightAir tempDewpointWater temp
2016-May-02 09:33N 39°19' W 074°32'0 0.0
2016-May-01 11:28N 39°19' W 074°32'0 0.0
2016-May-01 10:17N 39°19' W 074°32'0 0.0
2016-May-01 09:33N 39°19' W 074°32'0 0.0
2016-May-01 08:26N 39°19' W 074°32'0 0.0
2016-May-01 07:13N 39°19' W 074°32'0 0.0
2016-May-01 06:24N 39°19' W 074°32'0 0.0
2016-May-01 05:33N 39°19' W 074°32'0 0.0
2016-May-01 04:34N 39°19' W 074°32'0 0.0
2016-May-01 03:33N 39°19' W 074°32'0 0.0
2016-May-01 02:33N 39°19' W 074°32'0 0.0
2016-May-01 01:12N 39°19' W 074°32'0 0.0
2016-Apr-30 12:23N 39°19' W 074°32'0 0.0
2016-Apr-30 11:22N 39°19' W 074°32'0 0.0
2016-Apr-28 18:26N 39°19' W 074°32'7 6.5
2016-Apr-28 17:25N 39°13' W 074°36'2 0.3
2016-Apr-28 11:22N 39°12' W 074°39'0 0.3
2016-Apr-28 10:30N 39°12' W 074°39'0 0.0
2016-Apr-28 09:28N 39°12' W 074°39'0 0.0
2016-Apr-28 08:27N 39°12' W 074°39'0 0.0
2016-Apr-28 07:29N 39°12' W 074°39'0 0.0
2016-Apr-28 06:25N 39°12' W 074°39'0 0.1
2016-Apr-28 05:33N 39°12' W 074°39'0 0.0
2016-Apr-28 04:33N 39°12' W 074°39'  
2016-Apr-25 10:29N 39°12' W 074°39'1 0.7
2016-Apr-25 09:33N 39°12' W 074°38'0 0.0
2016-Apr-25 08:06N 39°12' W 074°38'0 0.3
2016-Apr-25 07:33N 39°12' W 074°38'0 0.3
2016-Apr-25 06:24N 39°12' W 074°38'0 0.6
2016-Apr-25 05:33N 39°12' W 074°38'0 0.0
2016-Apr-25 04:28N 39°12' W 074°38'0 0.0
2016-Apr-25 03:26N 39°12' W 074°38'0 0.0
2016-Apr-25 02:34N 39°12' W 074°38'1 0.5
2016-Apr-25 01:34N 39°12' W 074°38'0 0.0
2016-Apr-25 00:34N 39°12' W 074°39'  
Track history (hours):
 
Tides and Currents Weather Stations Pressure Air Temp Water Temp Dewpoint Dewpoint Depression Visibility Wind Speed Wind Dir Waves Ship Positions

R.l. Enterkin

Owner: Great Lakes Dredge & Dock Company, LLC., Oak Brook, IL. More information available from US FCC via Universal Licensing System and Coast Guard Vessel Documentation Center.

Last reported at 2016-May-02 09:33 UTC. Time now 2016-May-04 05:56 UTC.
Position N 39°19' W 074°32'.

MMSI: 367314080.

Date/timePositionNaut miles runAvg speedWind from/ knotsBaromVisibWave heightAir tempDewpointWater temp
2016-May-02 09:33N 39°19' W 074°32'0 0.0
2016-May-01 11:28N 39°19' W 074°32'0 0.0
2016-May-01 10:17N 39°19' W 074°32'0 0.0
2016-May-01 09:33N 39°19' W 074°32'0 0.0
2016-May-01 08:26N 39°19' W 074°32'0 0.0
2016-May-01 07:13N 39°19' W 074°32'0 0.0
2016-May-01 06:24N 39°19' W 074°32'0 0.0
2016-May-01 05:33N 39°19' W 074°32'0 0.0
2016-May-01 04:34N 39°19' W 074°32'0 0.0
2016-May-01 03:33N 39°19' W 074°32'0 0.0
2016-May-01 02:33N 39°19' W 074°32'0 0.0
2016-May-01 01:12N 39°19' W 074°32'0 0.0
2016-Apr-30 12:23N 39°19' W 074°32'0 0.0
2016-Apr-30 11:22N 39°19' W 074°32'0 0.0
2016-Apr-28 18:26N 39°19' W 074°32'7 6.5
2016-Apr-28 17:25N 39°13' W 074°36'2 0.3
2016-Apr-28 11:22N 39°12' W 074°39'0 0.3
2016-Apr-28 10:30N 39°12' W 074°39'0 0.0
2016-Apr-28 09:28N 39°12' W 074°39'0 0.0
2016-Apr-28 08:27N 39°12' W 074°39'0 0.0
2016-Apr-28 07:29N 39°12' W 074°39'0 0.0
2016-Apr-28 06:25N 39°12' W 074°39'0 0.1
2016-Apr-28 05:33N 39°12' W 074°39'0 0.0
2016-Apr-28 04:33N 39°12' W 074°39'  
2016-Apr-25 10:29N 39°12' W 074°39'1 0.7
2016-Apr-25 09:33N 39°12' W 074°38'0 0.0
2016-Apr-25 08:06N 39°12' W 074°38'0 0.3
2016-Apr-25 07:33N 39°12' W 074°38'0 0.3
2016-Apr-25 06:24N 39°12' W 074°38'0 0.6
2016-Apr-25 05:33N 39°12' W 074°38'0 0.0
2016-Apr-25 04:28N 39°12' W 074°38'0 0.0
2016-Apr-25 03:26N 39°12' W 074°38'0 0.0
2016-Apr-25 02:34N 39°12' W 074°38'1 0.5
2016-Apr-25 01:34N 39°12' W 074°38'0 0.0
2016-Apr-25 00:34N 39°12' W 074°39'  

Dump ship's entire track history